createdAt,value
2023-01-29T00:01:31.368Z,83.54
2023-01-29T00:03:57.901Z,83.53
2023-01-29T00:06:24.763Z,83.41
2023-01-29T00:08:51.282Z,83.97
2023-01-29T00:11:18.170Z,83.57
2023-01-29T00:13:44.690Z,83.72
2023-01-29T00:16:11.281Z,83.69
2023-01-29T00:18:40.531Z,83.23
2023-01-29T00:21:09.348Z,83.53
2023-01-29T00:23:35.917Z,83.64
2023-01-29T00:26:02.455Z,83.29
2023-01-29T00:28:28.974Z,83.41
2023-01-29T00:30:55.571Z,80.54
2023-01-29T00:33:22.165Z,83.25
2023-01-29T00:35:50.017Z,83.09
2023-01-29T00:38:16.522Z,83.17
2023-01-29T00:41:01.931Z,83.38
2023-01-29T00:43:47.256Z,83.19
2023-01-29T00:46:13.837Z,82.85
2023-01-29T00:48:40.380Z,83.43
2023-01-29T00:51:08.210Z,83.60
2023-01-29T00:53:34.728Z,83.28
2023-01-29T00:56:01.223Z,82.79
2023-01-29T00:58:34.469Z,83.12
2023-01-29T01:01:02.366Z,83.08
2023-01-29T01:03:29.740Z,83.22
2023-01-29T01:06:03.557Z,82.80
2023-01-29T01:08:50.063Z,82.94
2023-01-29T01:11:16.617Z,83.30
2023-01-29T01:13:43.335Z,82.98
2023-01-29T01:16:10.751Z,82.75
2023-01-29T01:18:38.038Z,83.09
2023-01-29T01:21:05.123Z,82.89
2023-01-29T01:23:33.173Z,83.10
2023-01-29T01:26:00.094Z,83.09
2023-01-29T01:28:26.932Z,82.98
2023-01-29T01:30:53.600Z,82.84
2023-01-29T01:33:20.294Z,82.89
2023-01-29T01:35:46.835Z,82.65
2023-01-29T01:38:13.361Z,82.90
2023-01-29T01:40:45.448Z,83.02
2023-01-29T01:43:12.050Z,82.79
2023-01-29T01:45:38.794Z,83.15
2023-01-29T01:48:07.519Z,83.03
2023-01-29T01:50:38.346Z,82.82
2023-01-29T01:53:07.574Z,80.63
2023-01-29T01:55:37.765Z,82.64
2023-01-29T01:58:09.995Z,83.18
2023-01-29T02:00:37.073Z,83.40
2023-01-29T02:03:23.307Z,82.81
2023-01-29T02:06:09.120Z,83.22
2023-01-29T02:09:00.376Z,82.81
2023-01-29T02:11:27.221Z,83.14
2023-01-29T02:13:55.089Z,82.77
2023-01-29T02:16:22.032Z,82.70
2023-01-29T02:18:49.314Z,82.88
2023-01-29T02:21:33.691Z,83.15
2023-01-29T02:24:26.183Z,83.45
2023-01-29T02:27:09.015Z,82.67
2023-01-29T02:29:51.875Z,83.21
2023-01-29T02:32:28.141Z,82.60
2023-01-29T02:35:24.463Z,83.05
2023-01-29T02:37:58.051Z,83.26
2023-01-29T02:40:31.248Z,83.53
2023-01-29T02:43:08.617Z,83.13
2023-01-29T02:45:46.446Z,83.12
2023-01-29T02:48:17.488Z,82.60
2023-01-29T02:50:49.291Z,83.13
2023-01-29T02:54:08.679Z,83.06
2023-01-29T02:56:40.492Z,83.49
2023-01-29T02:59:11.883Z,83.33
2023-01-29T03:01:46.054Z,83.08
2023-01-29T03:04:22.512Z,83.20
2023-01-29T03:06:54.561Z,82.51
2023-01-29T03:09:26.697Z,82.91
2023-01-29T03:11:59.610Z,83.26
2023-01-29T03:14:52.358Z,83.21
2023-01-29T03:17:23.213Z,83.05
2023-01-29T03:19:50.853Z,83.08
2023-01-29T03:22:21.861Z,82.55
2023-01-29T03:25:11.114Z,83.47
2023-01-29T03:28:02.700Z,83.06
2023-01-29T03:30:50.735Z,83.06
2023-01-29T03:33:23.903Z,83.13
2023-01-29T03:35:59.207Z,83.36
2023-01-29T03:38:29.507Z,83.35
2023-01-29T03:40:59.681Z,83.14
2023-01-29T03:43:35.207Z,83.52
2023-01-29T03:46:08.344Z,83.34
2023-01-29T03:48:40.155Z,83.02
2023-01-29T03:51:17.005Z,83.01
2023-01-29T03:53:50.382Z,83.42
2023-01-29T03:56:32.112Z,83.02
2023-01-29T03:59:02.534Z,83.56
2023-01-29T04:01:35.645Z,83.21
2023-01-29T04:04:08.316Z,83.14
2023-01-29T04:06:37.931Z,83.38
2023-01-29T04:09:07.453Z,83.12
2023-01-29T04:11:38.057Z,83.15
2023-01-29T04:14:07.324Z,83.38
2023-01-29T04:16:37.957Z,76.47
2023-01-29T04:19:05.993Z,84.24
2023-01-29T04:21:32.952Z,75.45
2023-01-29T04:23:59.584Z,84.14
2023-01-29T04:26:44.585Z,83.77
2023-01-29T04:29:22.149Z,83.41
2023-01-29T04:32:00.145Z,83.33
2023-01-29T04:34:29.389Z,82.91
2023-01-29T04:37:04.727Z,83.34
2023-01-29T04:39:40.975Z,83.03
2023-01-29T04:42:14.199Z,83.48
2023-01-29T04:44:49.726Z,83.39
2023-01-29T04:47:24.645Z,83.14
2023-01-29T04:49:59.081Z,83.56
2023-01-29T04:52:34.030Z,83.55
2023-01-29T04:55:05.845Z,83.16
2023-01-29T04:57:37.000Z,83.21
2023-01-29T05:00:10.035Z,83.55
2023-01-29T05:02:39.314Z,83.55
2023-01-29T05:05:09.582Z,83.60
2023-01-29T05:07:39.260Z,84.12
2023-01-29T05:10:06.723Z,83.56
2023-01-29T05:12:34.352Z,83.04
2023-01-29T05:15:03.168Z,83.73
2023-01-29T05:17:29.995Z,83.61
2023-01-29T05:19:56.946Z,83.42
2023-01-29T05:22:26.551Z,83.72
2023-01-29T05:24:53.095Z,70.34
2023-01-29T05:27:41.170Z,84.19
2023-01-29T05:30:09.776Z,83.54
2023-01-29T05:32:36.305Z,83.55
2023-01-29T05:35:02.918Z,83.16
2023-01-29T05:37:30.746Z,83.09
2023-01-29T05:39:57.276Z,83.01
2023-01-29T05:42:24.198Z,83.46
2023-01-29T05:44:50.722Z,83.25
2023-01-29T05:47:19.191Z,83.25
2023-01-29T05:49:45.711Z,83.00
2023-01-29T05:52:12.191Z,80.78
2023-01-29T05:54:40.018Z,86.94
2023-01-29T05:57:06.507Z,83.93
2023-01-29T05:59:33.044Z,77.97
2023-01-29T06:01:59.588Z,85.16
2023-01-29T06:04:26.166Z,84.09
2023-01-29T06:06:52.651Z,83.93
2023-01-29T06:09:19.229Z,83.21
2023-01-29T06:11:47.123Z,83.20
2023-01-29T06:14:13.649Z,83.14
2023-01-29T06:16:40.190Z,83.07
2023-01-29T06:19:06.678Z,80.04
2023-01-29T06:21:33.269Z,83.50
2023-01-29T06:23:59.881Z,83.31
2023-01-29T06:26:26.415Z,82.97
2023-01-29T06:28:54.295Z,83.02
2023-01-29T06:31:36.871Z,82.71
2023-01-29T06:34:04.714Z,83.21
2023-01-29T06:36:31.311Z,83.50
2023-01-29T06:38:57.821Z,83.20
2023-01-29T06:41:25.504Z,83.02
2023-01-29T06:43:53.623Z,82.91
2023-01-29T06:46:20.218Z,83.07
2023-01-29T06:48:46.863Z,82.67
2023-01-29T06:51:13.416Z,83.09
2023-01-29T06:53:40.462Z,82.72
2023-01-29T06:56:07.777Z,82.99
2023-01-29T06:58:37.060Z,82.77
2023-01-29T07:01:06.199Z,82.45
2023-01-29T07:03:32.855Z,81.57
2023-01-29T07:05:59.594Z,82.90
2023-01-29T07:08:26.256Z,82.85
2023-01-29T07:10:52.820Z,82.69
2023-01-29T07:13:19.319Z,82.73
2023-01-29T07:15:46.170Z,82.89
2023-01-29T07:18:14.035Z,82.37
2023-01-29T07:20:41.691Z,82.47
2023-01-29T07:23:10.847Z,82.45
2023-01-29T07:25:37.492Z,82.24
2023-01-29T07:28:04.146Z,82.90
2023-01-29T07:30:30.741Z,82.53
2023-01-29T07:33:01.640Z,82.40
2023-01-29T07:35:29.598Z,82.42
2023-01-29T07:37:56.080Z,82.25
2023-01-29T07:40:22.900Z,82.94
2023-01-29T07:42:49.443Z,82.90
2023-01-29T07:45:15.977Z,82.80
2023-01-29T07:47:42.460Z,82.44
2023-01-29T07:50:10.126Z,82.82
2023-01-29T07:52:37.980Z,82.98
2023-01-29T07:55:05.116Z,82.08
2023-01-29T07:57:31.687Z,82.22
2023-01-29T07:59:58.182Z,82.35
2023-01-29T08:02:24.769Z,82.82
2023-01-29T08:04:51.309Z,82.35
2023-01-29T08:07:17.816Z,82.24
2023-01-29T08:09:48.034Z,82.22
2023-01-29T08:12:14.696Z,71.99
2023-01-29T08:14:41.173Z,82.83
2023-01-29T08:17:07.745Z,82.68
2023-01-29T08:19:34.243Z,81.10
2023-01-29T08:22:00.757Z,82.41
2023-01-29T08:24:36.087Z,82.51
2023-01-29T08:27:15.123Z,82.60
2023-01-29T08:29:41.641Z,82.72
2023-01-29T08:32:10.170Z,73.93
2023-01-29T08:34:36.712Z,81.42
2023-01-29T08:37:03.239Z,76.08
2023-01-29T08:39:29.728Z,79.71
2023-01-29T08:41:56.229Z,65.67
2023-01-29T08:44:24.115Z,64.64
2023-01-29T08:46:50.647Z,71.76
2023-01-29T08:49:17.146Z,67.28
2023-01-29T08:51:43.639Z,67.15
2023-01-29T08:54:10.140Z,65.89
2023-01-29T08:56:36.756Z,77.35
2023-01-29T08:59:03.303Z,79.91
2023-01-29T09:01:31.168Z,81.20
2023-01-29T09:03:57.706Z,81.35
2023-01-29T09:06:24.244Z,78.20
2023-01-29T09:08:50.845Z,80.23
2023-01-29T09:11:17.403Z,81.70
2023-01-29T09:13:43.988Z,82.28
2023-01-29T09:16:10.770Z,82.38
2023-01-29T09:18:38.616Z,82.14
2023-01-29T09:21:05.686Z,82.47
2023-01-29T09:23:32.238Z,82.13
2023-01-29T09:25:59.079Z,82.51
2023-01-29T09:28:26.051Z,81.89
2023-01-29T09:30:52.963Z,82.20
2023-01-29T09:33:19.713Z,61.66
2023-01-29T09:35:47.552Z,59.81
2023-01-29T09:38:14.639Z,60.81
2023-01-29T09:40:51.669Z,57.39
2023-01-29T09:43:20.436Z,75.95
2023-01-29T09:45:55.030Z,80.02
2023-01-29T09:48:26.488Z,81.07
2023-01-29T09:50:58.564Z,80.62
2023-01-29T09:53:31.586Z,80.15
2023-01-29T09:56:02.633Z,83.55
2023-01-29T09:58:32.838Z,79.47
2023-01-29T10:01:08.458Z,81.90
2023-01-29T10:03:50.803Z,78.26
2023-01-29T10:06:39.464Z,61.55
2023-01-29T10:09:41.361Z,67.08
2023-01-29T10:12:25.564Z,76.32
2023-01-29T10:15:03.819Z,78.74
2023-01-29T10:17:49.425Z,79.94
2023-01-29T10:20:30.753Z,62.92
2023-01-29T10:23:06.976Z,57.52
2023-01-29T10:25:39.330Z,65.94
2023-01-29T10:28:15.809Z,72.90
2023-01-29T10:30:48.260Z,55.49
2023-01-29T10:33:19.514Z,60.25
2023-01-29T10:35:50.276Z,64.24
2023-01-29T10:38:28.336Z,70.98
2023-01-29T10:41:04.420Z,63.11
2023-01-29T10:43:38.996Z,59.94
2023-01-29T10:46:19.177Z,72.90
2023-01-29T10:48:56.303Z,77.92
2023-01-29T10:51:40.741Z,79.73
2023-01-29T10:54:31.189Z,75.69
2023-01-29T10:57:09.971Z,60.23
2023-01-29T10:59:54.627Z,67.62
2023-01-29T11:02:22.594Z,61.81
2023-01-29T11:04:49.311Z,68.05
2023-01-29T11:07:18.694Z,64.79
2023-01-29T11:09:57.223Z,76.28
2023-01-29T11:12:30.374Z,73.78
2023-01-29T11:15:01.644Z,58.67
2023-01-29T11:17:28.205Z,67.47
2023-01-29T11:19:58.175Z,68.97
2023-01-29T11:22:26.219Z,56.79
2023-01-29T11:25:10.569Z,65.06
2023-01-29T11:27:43.319Z,73.34
2023-01-29T11:30:16.564Z,55.47
2023-01-29T11:32:43.446Z,51.36
2023-01-29T11:35:21.849Z,55.22
2023-01-29T11:37:48.487Z,66.17
2023-01-29T11:40:40.674Z,72.71
2023-01-29T11:43:19.584Z,60.64
2023-01-29T11:45:47.967Z,56.77
2023-01-29T11:48:16.755Z,63.36
2023-01-29T11:50:45.303Z,63.69
2023-01-29T11:53:33.651Z,60.99
2023-01-29T11:56:05.408Z,59.28
2023-01-29T11:58:35.153Z,69.12
2023-01-29T12:01:02.938Z,63.05
2023-01-29T12:03:35.574Z,70.13
2023-01-29T12:06:07.347Z,73.58
2023-01-29T12:08:37.122Z,67.68
2023-01-29T12:11:12.401Z,69.77
2023-01-29T12:13:40.609Z,71.84
2023-01-29T12:16:17.072Z,76.18
2023-01-29T12:18:49.919Z,78.51
2023-01-29T12:21:24.102Z,79.16
2023-01-29T12:23:57.762Z,79.23
2023-01-29T12:26:32.513Z,79.45
2023-01-29T12:29:16.542Z,79.54
2023-01-29T12:31:50.182Z,79.85
2023-01-29T12:34:23.737Z,80.33
2023-01-29T12:36:56.141Z,80.07
2023-01-29T12:39:23.083Z,80.17
2023-01-29T12:41:57.349Z,80.40
2023-01-29T12:44:30.487Z,79.53
2023-01-29T12:47:01.558Z,80.06
2023-01-29T12:49:33.100Z,78.51
2023-01-29T12:52:07.937Z,79.86
2023-01-29T12:54:39.107Z,76.30
2023-01-29T12:57:19.016Z,66.46
2023-01-29T12:59:50.136Z,68.58
2023-01-29T13:02:30.371Z,70.51
2023-01-29T13:05:01.022Z,65.81
2023-01-29T13:07:32.771Z,77.27
2023-01-29T13:10:07.366Z,70.76
2023-01-29T13:12:37.041Z,76.20
2023-01-29T13:15:06.158Z,75.24
2023-01-29T13:17:36.806Z,73.34
2023-01-29T13:20:10.969Z,61.84
2023-01-29T13:22:40.827Z,62.04
2023-01-29T13:25:15.636Z,62.18
2023-01-29T13:27:45.782Z,65.86
2023-01-29T13:30:24.980Z,71.91
2023-01-29T13:32:54.153Z,66.65
2023-01-29T13:35:23.273Z,63.39
2023-01-29T13:37:52.148Z,63.14
2023-01-29T13:40:24.488Z,64.91
2023-01-29T13:42:54.771Z,62.91
2023-01-29T13:45:23.625Z,64.72
2023-01-29T13:47:52.224Z,65.53
2023-01-29T13:50:24.059Z,73.61
2023-01-29T13:52:56.416Z,64.78
2023-01-29T13:55:31.149Z,77.36
2023-01-29T13:58:00.313Z,79.57
2023-01-29T14:00:48.410Z,80.07
2023-01-29T14:04:02.205Z,80.16
2023-01-29T14:06:52.228Z,80.40
2023-01-29T14:09:53.465Z,80.58
2023-01-29T14:12:40.909Z,79.42
2023-01-29T14:15:21.872Z,80.49
2023-01-29T14:17:59.553Z,80.95
2023-01-29T14:20:45.102Z,80.67
2023-01-29T14:23:23.745Z,81.05
2023-01-29T14:25:50.580Z,81.05
2023-01-29T14:28:22.684Z,81.11
2023-01-29T14:30:51.835Z,81.00
2023-01-29T14:33:26.506Z,81.10
2023-01-29T14:35:56.221Z,80.40
2023-01-29T14:38:23.369Z,80.04
2023-01-29T14:40:49.927Z,80.05
2023-01-29T14:43:21.644Z,80.47
2023-01-29T14:45:49.956Z,80.98
2023-01-29T14:48:36.947Z,81.10
2023-01-29T14:51:10.897Z,81.06
2023-01-29T14:53:54.466Z,77.54
2023-01-29T14:56:27.645Z,79.86
2023-01-29T14:59:00.152Z,80.60
2023-01-29T15:01:32.428Z,80.48
2023-01-29T15:04:03.521Z,80.69
2023-01-29T15:06:38.669Z,81.15
2023-01-29T15:09:12.560Z,81.27
2023-01-29T15:11:48.605Z,81.38
2023-01-29T15:14:25.564Z,80.78
2023-01-29T15:17:02.306Z,81.17
2023-01-29T15:19:34.587Z,81.00
2023-01-29T15:22:12.704Z,81.33
2023-01-29T15:24:42.006Z,81.31
2023-01-29T15:27:13.167Z,80.96
2023-01-29T15:29:41.575Z,81.27
2023-01-29T15:32:16.683Z,81.22
2023-01-29T15:34:44.262Z,81.98
2023-01-29T15:37:25.558Z,81.57
2023-01-29T15:39:53.211Z,81.08
2023-01-29T15:42:25.597Z,81.80
2023-01-29T15:44:54.323Z,81.69
2023-01-29T15:47:25.215Z,81.82
2023-01-29T15:49:52.649Z,81.71
2023-01-29T15:52:22.803Z,81.92
2023-01-29T15:54:49.595Z,81.62
2023-01-29T15:57:23.441Z,81.97
2023-01-29T15:59:52.361Z,81.64
2023-01-29T16:02:27.895Z,81.94
2023-01-29T16:04:55.691Z,81.80
2023-01-29T16:07:22.651Z,72.85
2023-01-29T16:09:50.625Z,80.77
2023-01-29T16:12:17.546Z,81.28
2023-01-29T16:14:45.955Z,81.70
2023-01-29T16:17:25.251Z,81.33
2023-01-29T16:19:58.537Z,80.94
2023-01-29T16:22:26.709Z,81.26
2023-01-29T16:24:54.557Z,81.37
2023-01-29T16:27:21.250Z,81.42
2023-01-29T16:29:47.929Z,81.37
2023-01-29T16:32:16.360Z,81.36
2023-01-29T16:34:48.135Z,81.67
2023-01-29T16:37:22.573Z,81.77
2023-01-29T16:39:52.346Z,81.36
2023-01-29T16:42:20.785Z,81.59
2023-01-29T16:44:51.236Z,81.62
2023-01-29T16:47:25.317Z,81.36
2023-01-29T16:49:54.448Z,81.45
2023-01-29T16:52:24.628Z,81.85
2023-01-29T16:54:51.648Z,81.34
2023-01-29T16:57:21.320Z,75.72
2023-01-29T16:59:48.650Z,81.51
2023-01-29T17:02:22.977Z,81.45
2023-01-29T17:04:53.822Z,81.39
2023-01-29T17:07:22.211Z,81.54
2023-01-29T17:09:51.807Z,81.55
2023-01-29T17:12:21.446Z,77.95
2023-01-29T17:14:58.379Z,81.37
2023-01-29T17:17:29.562Z,81.12
2023-01-29T17:19:57.556Z,81.64
2023-01-29T17:22:24.309Z,81.47
2023-01-29T17:24:51.509Z,81.41
2023-01-29T17:27:20.590Z,81.58
2023-01-29T17:29:47.807Z,81.10
2023-01-29T17:32:14.480Z,81.29
2023-01-29T17:34:41.073Z,81.42
2023-01-29T17:37:13.478Z,81.47
2023-01-29T17:39:40.244Z,81.54
2023-01-29T17:42:12.230Z,78.10
2023-01-29T17:44:38.748Z,82.10
2023-01-29T17:47:05.452Z,75.86
2023-01-29T17:49:38.088Z,76.22
2023-01-29T17:52:05.210Z,82.13
2023-01-29T17:54:33.280Z,82.50
2023-01-29T17:56:59.783Z,81.74
2023-01-29T17:59:29.983Z,82.06
2023-01-29T18:01:56.583Z,81.89
2023-01-29T18:04:23.424Z,81.78
2023-01-29T18:06:51.655Z,81.70
2023-01-29T18:09:22.411Z,81.68
2023-01-29T18:11:51.045Z,81.39
2023-01-29T18:14:17.730Z,81.72
2023-01-29T18:16:45.022Z,81.90
2023-01-29T18:19:14.899Z,81.86
2023-01-29T18:21:41.410Z,81.74
2023-01-29T18:24:08.273Z,81.47
2023-01-29T18:26:35.859Z,81.41
2023-01-29T18:29:04.131Z,81.27
2023-01-29T18:31:30.695Z,81.19
2023-01-29T18:33:57.252Z,81.58
2023-01-29T18:36:24.010Z,81.43
2023-01-29T18:38:50.533Z,74.82
2023-01-29T18:41:17.110Z,81.26
2023-01-29T18:43:44.335Z,81.12
2023-01-29T18:46:12.296Z,81.46
2023-01-29T18:48:40.927Z,81.44
2023-01-29T18:51:08.270Z,81.60
2023-01-29T18:53:34.770Z,81.62
2023-01-29T18:56:06.405Z,81.27
2023-01-29T18:58:36.132Z,81.37
2023-01-29T19:01:08.908Z,81.16
2023-01-29T19:03:37.707Z,81.64
2023-01-29T19:06:07.000Z,81.32
2023-01-29T19:08:33.982Z,81.20
2023-01-29T19:11:02.430Z,81.46
2023-01-29T19:13:29.468Z,81.39
2023-01-29T19:15:55.986Z,81.40
2023-01-29T19:18:23.294Z,81.52
2023-01-29T19:20:51.241Z,81.10
2023-01-29T19:23:17.844Z,80.90
2023-01-29T19:25:44.986Z,81.24
2023-01-29T19:28:11.589Z,81.17
2023-01-29T19:30:38.269Z,81.14
2023-01-29T19:33:05.012Z,79.73
2023-01-29T19:35:32.606Z,81.65
2023-01-29T19:38:01.147Z,80.94
2023-01-29T19:40:27.651Z,81.32
2023-01-29T19:42:55.413Z,80.83
2023-01-29T19:45:37.473Z,80.90
2023-01-29T19:48:13.382Z,80.99
2023-01-29T19:50:39.882Z,81.03
2023-01-29T19:53:07.780Z,81.11
2023-01-29T19:55:34.285Z,81.04
2023-01-29T19:58:00.832Z,80.89
2023-01-29T20:00:27.363Z,80.89
2023-01-29T20:02:53.904Z,81.25
2023-01-29T20:05:20.685Z,80.71
2023-01-29T20:07:47.368Z,80.94
2023-01-29T20:10:17.403Z,80.92
2023-01-29T20:12:45.121Z,80.67
2023-01-29T20:15:11.689Z,81.10
2023-01-29T20:17:38.455Z,81.34
2023-01-29T20:20:06.644Z,81.05
2023-01-29T20:22:33.223Z,81.08
2023-01-29T20:24:59.763Z,81.03
2023-01-29T20:27:27.635Z,80.58
2023-01-29T20:29:54.121Z,80.80
2023-01-29T20:32:20.690Z,80.86
2023-01-29T20:34:51.833Z,81.01
2023-01-29T20:37:19.206Z,80.38
2023-01-29T20:39:45.853Z,80.94
2023-01-29T20:42:12.617Z,80.62
2023-01-29T20:44:40.795Z,80.88
2023-01-29T20:47:07.390Z,80.02
2023-01-29T20:49:34.188Z,77.99
2023-01-29T20:52:00.735Z,66.27
2023-01-29T20:54:29.304Z,76.49
2023-01-29T20:56:55.918Z,86.11
2023-01-29T20:59:23.045Z,81.93
2023-01-29T21:01:50.988Z,81.18
2023-01-29T21:04:17.563Z,80.96
2023-01-29T21:06:44.322Z,80.55
2023-01-29T21:09:10.858Z,80.63
2023-01-29T21:11:37.394Z,75.15
2023-01-29T21:14:04.113Z,80.36
2023-01-29T21:16:30.729Z,80.29
2023-01-29T21:18:58.682Z,80.52
2023-01-29T21:21:26.527Z,80.42
2023-01-29T21:23:53.438Z,80.14
2023-01-29T21:26:20.082Z,79.99
2023-01-29T21:28:46.618Z,80.38
2023-01-29T21:31:17.568Z,80.08
2023-01-29T21:33:44.420Z,80.43
2023-01-29T21:36:12.620Z,80.27
2023-01-29T21:38:39.563Z,79.79
2023-01-29T21:41:08.651Z,80.08
2023-01-29T21:43:35.807Z,79.67
2023-01-29T21:46:11.316Z,72.07
2023-01-29T21:48:39.295Z,80.07
2023-01-29T21:51:06.419Z,82.64
2023-01-29T21:53:34.818Z,81.25
2023-01-29T21:56:02.269Z,80.75
2023-01-29T21:58:29.778Z,80.11
2023-01-29T22:00:56.606Z,79.69
2023-01-29T22:03:38.888Z,79.83
2023-01-29T22:06:06.020Z,80.59
2023-01-29T22:08:33.911Z,80.08
2023-01-29T22:11:05.735Z,68.83
2023-01-29T22:13:32.434Z,82.84
2023-01-29T22:15:58.968Z,82.37
2023-01-29T22:18:25.788Z,80.58
2023-01-29T22:20:52.860Z,80.22
2023-01-29T22:23:19.455Z,80.28
2023-01-29T22:25:47.316Z,79.89
2023-01-29T22:28:14.818Z,80.39
2023-01-29T22:30:41.376Z,79.90
2023-01-29T22:33:08.371Z,80.16
2023-01-29T22:35:34.875Z,80.01
2023-01-29T22:38:01.434Z,80.28
2023-01-29T22:40:27.939Z,80.46
2023-01-29T22:42:55.888Z,80.02
2023-01-29T22:45:22.391Z,68.87
2023-01-29T22:47:48.887Z,80.59
2023-01-29T22:50:15.708Z,79.91
2023-01-29T22:52:42.812Z,82.80
2023-01-29T22:55:10.760Z,81.07
2023-01-29T22:57:37.514Z,78.77
2023-01-29T23:00:09.026Z,81.25
2023-01-29T23:02:35.667Z,72.76
2023-01-29T23:05:02.428Z,75.17
2023-01-29T23:07:28.947Z,77.15
2023-01-29T23:09:55.457Z,69.67
2023-01-29T23:12:21.957Z,80.12
2023-01-29T23:14:48.485Z,65.69
2023-01-29T23:17:16.440Z,86.63
2023-01-29T23:19:42.998Z,82.87
2023-01-29T23:22:09.481Z,81.12
2023-01-29T23:24:36.019Z,80.56
2023-01-29T23:27:14.988Z,80.97
2023-01-29T23:29:42.182Z,80.91
2023-01-29T23:32:09.148Z,80.63
2023-01-29T23:34:37.167Z,80.42
2023-01-29T23:37:04.030Z,78.97
2023-01-29T23:39:30.597Z,80.60
2023-01-29T23:41:57.320Z,66.97
2023-01-29T23:44:23.855Z,81.71
2023-01-29T23:46:50.437Z,80.47
2023-01-29T23:49:17.007Z,80.46
2023-01-29T23:51:45.786Z,79.95
2023-01-29T23:54:13.216Z,80.28
2023-01-29T23:56:39.781Z,79.77
2023-01-29T23:59:06.274Z,80.32
